CheckWX is a tool to help pilots better visualize weather data.  It is not intended as a substitute for an official pre-flight weather briefing.

02:42:13 UTC

KJER METAR
Jerome County Airport
Jerome, Idaho, USA
Current

49 mins ago

KJER 180153Z AUTO 36003KT 8SM -SN OVC041 M04/M06 A2992 RMK AO2 SNB29 SLP164 P0000 T10441056
Observed
Feb-18 @ 01:53 UTC
Wind
  • 360° at 3 KTS
Visibility
8 SM
Flight Rules
VFR
Conditions
Light Snow
Cloud Levels
  • Overcast at 4,100' AGL
Temperature
-4°C / 25°F
Dewpoint
-6°C / 21°F
Humidity
86%
Altimeter
29.92" Hg
Pressure
1016.4 hPa
Current Rain
0.01"
Previous

2 hours ago

KJER 180053Z AUTO 01004KT 7SM OVC049 M03/M05 A2990 RMK AO2 SNE36 SLP155 P0000 T10331050
Observed
Feb-18 @ 00:53 UTC
Wind
  • 010° at 4 KTS
Visibility
7 SM
Flight Rules
VFR
Cloud Levels
  • Overcast at 4,900' AGL
Temperature
-3°C / 27°F
Dewpoint
-5°C / 23°F
Humidity
86%
Altimeter
29.9" Hg
Pressure
1015.5 hPa
Current Rain
0.01"
Previous

3 hours ago

KJER 180007Z AUTO 36003KT 5SM -SN BKN034 OVC048 M02/M05 A2989 RMK AO2 P0000 T10221050
Observed
Feb-18 @ 00:07 UTC
Wind
  • 360° at 3 KTS
Visibility
5 SM
Flight Rules
MVFR
Conditions
Light Snow
Cloud Levels
  • Broken at 3,400' AGL
  • Overcast at 4,800' AGL
Temperature
-2°C / 28°F
Dewpoint
-5°C / 23°F
Humidity
80%
Altimeter
29.89" Hg
Pressure
1012.22 hPa
Current Rain
0.01"